Time;durP1;ratioP1;P1;durP2;ratioP2;P2;SDS_P1;SDS_P2;PMS_P1;PMS_P2;Temp;Humidity;BMP_temperature;BMP_pressure;BME280_temperature;BME280_humidity;BME280_pressure;Samples;Min_cycle;Max_cycle;Signal;HPM_P1;HPM_P2
2021/09/02 00:02:00;;;;;;;1.00;0.85;;;17.30;81.70;;;;;;5134141;28;20034;-79
2021/09/02 00:04:27;;;;;;;1.25;1.05;;;17.30;81.70;;;;;;5134187;28;20047;-78
2021/09/02 00:06:52;;;;;;;1.50;1.40;;;17.30;81.80;;;;;;5134265;28;20066;-79
2021/09/02 00:09:18;;;;;;;1.65;1.20;;;17.30;82.00;;;;;;5134241;28;20020;-78
2021/09/02 00:11:43;;;;;;;1.00;0.90;;;17.20;82.00;;;;;;5133368;28;20080;-79
2021/09/02 00:14:09;;;;;;;1.20;1.10;;;17.30;82.20;;;;;;5133745;28;20019;-78
2021/09/02 00:16:35;;;;;;;0.82;0.82;;;17.30;82.10;;;;;;5134359;28;20379;-79
2021/09/02 00:19:00;;;;;;;1.55;1.30;;;17.30;82.10;;;;;;5115531;28;20492;-79
2021/09/02 00:21:26;;;;;;;1.63;1.52;;;17.30;82.10;;;;;;5133708;28;20066;-78
2021/09/02 00:23:51;;;;;;;2.13;1.63;;;17.30;82.10;;;;;;5134218;28;20019;-79
2021/09/02 00:26:17;;;;;;;1.88;1.38;;;17.20;82.20;;;;;;5134151;28;20030;-79
2021/09/02 00:28:42;;;;;;;1.92;1.20;;;17.10;82.30;;;;;;5133826;28;20019;-78
2021/09/02 00:31:08;;;;;;;1.25;0.90;;;17.00;82.50;;;;;;5133994;28;20495;-78
2021/09/02 00:33:34;;;;;;;1.42;0.90;;;17.10;82.60;;;;;;5133992;28;20034;-78
2021/09/02 00:35:59;;;;;;;0.80;0.80;;;17.10;82.60;;;;;;5115405;28;20023;-79
2021/09/02 00:38:25;;;;;;;1.13;0.90;;;17.10;82.50;;;;;;5133512;28;20024;-78
2021/09/02 00:40:50;;;;;;;1.00;0.90;;;17.10;82.50;;;;;;5135718;27;20035;-78
2021/09/02 00:43:16;;;;;;;1.27;1.00;;;17.10;82.50;;;;;;5137299;27;20019;-78
2021/09/02 00:45:42;;;;;;;1.45;1.30;;;17.10;82.60;;;;;;5137800;27;20022;-79
2021/09/02 00:48:08;;;;;;;1.60;1.33;;;17.00;82.70;;;;;;5137654;27;20023;-77
2021/09/02 00:50:33;;;;;;;1.10;1.00;;;17.00;82.80;;;;;;5137487;27;20035;-77
2021/09/02 00:53:00;;;;;;;1.50;1.40;;;17.00;82.80;;;;;;5137529;27;20023;-79
2021/09/02 00:55:26;;;;;;;1.25;1.02;;;17.00;82.80;;;;;;5137580;27;20027;-78
2021/09/02 00:57:52;;;;;;;0.77;0.77;;;17.00;82.80;;;;;;5136424;27;20066;-78
2021/09/02 01:00:18;;;;;;;1.60;0.93;;;17.00;82.80;;;;;;5137362;27;20027;-78
2021/09/02 01:02:45;;;;;;;1.15;0.90;;;17.00;82.80;;;;;;5137103;27;20387;-78
2021/09/02 01:05:14;;;;;;;0.77;0.77;;;17.00;82.70;;;;;;5137236;27;20019;-77
2021/09/02 01:07:40;;;;;;;1.55;1.10;;;17.00;82.90;;;;;;5118760;27;20565;-78
2021/09/02 01:10:07;;;;;;;1.30;1.20;;;17.00;82.90;;;;;;5137270;27;20024;-77
2021/09/02 01:12:36;;;;;;;1.58;1.02;;;17.00;82.90;;;;;;5137123;27;20114;-78
2021/09/02 01:15:03;;;;;;;1.65;1.35;;;16.90;83.50;;;;;;5137039;27;20025;-78
2021/09/02 01:17:31;;;;;;;1.55;1.23;;;16.90;82.90;;;;;;5137187;27;20061;-78
2021/09/02 01:19:57;;;;;;;1.17;1.05;;;16.90;83.10;;;;;;5136734;27;20043;-78
2021/09/02 01:22:30;;;;;;;1.33;1.23;;;16.90;83.00;;;;;;5136443;27;20030;-78
2021/09/02 01:25:00;;;;;;;0.93;0.88;;;16.90;83.00;;;;;;5118663;27;20118;-78
2021/09/02 01:27:27;;;;;;;0.90;0.90;;;16.90;82.90;;;;;;5136585;27;20437;-78
2021/09/02 01:29:54;;;;;;;1.67;1.02;;;17.00;83.50;;;;;;5118387;27;20080;-78
2021/09/02 01:32:21;;;;;;;2.38;1.35;;;17.00;82.90;;;;;;5136800;27;20015;-78
2021/09/02 01:34:46;;;;;;;1.50;1.17;;;17.00;82.80;;;;;;5136803;27;20015;-77
2021/09/02 01:37:12;;;;;;;0.85;0.70;;;17.00;82.80;;;;;;5136562;27;20038;-77
2021/09/02 01:39:38;;;;;;;1.13;0.85;;;16.90;82.80;;;;;;5118132;27;20475;-78
2021/09/02 01:42:04;;;;;;;1.20;1.10;;;16.90;82.90;;;;;;5117678;27;20035;-77
2021/09/02 01:44:29;;;;;;;1.08;0.98;;;16.90;82.90;;;;;;5136574;27;20023;-78
2021/09/02 01:46:55;;;;;;;1.33;1.00;;;16.80;82.90;;;;;;5136255;27;20075;-78
2021/09/02 01:49:20;;;;;;;1.55;1.10;;;16.80;83.00;;;;;;5136389;27;20025;-79
2021/09/02 01:51:46;;;;;;;1.10;0.98;;;16.80;83.10;;;;;;5135976;27;20062;-79
2021/09/02 01:54:12;;;;;;;1.38;1.13;;;16.80;83.20;;;;;;5136479;27;20068;-79
2021/09/02 01:56:37;;;;;;;1.25;0.98;;;16.70;83.20;;;;;;5135934;27;20019;-79
2021/09/02 01:59:03;;;;;;;0.90;0.80;;;16.80;83.30;;;;;;5136347;27;20019;-79
2021/09/02 02:01:28;;;;;;;1.45;1.00;;;16.80;83.30;;;;;;5136020;27;20035;-77
2021/09/02 02:03:54;;;;;;;1.13;1.00;;;16.80;83.20;;;;;;5136258;27;20378;-78
2021/09/02 02:06:19;;;;;;;1.70;1.38;;;16.80;83.20;;;;;;5136166;27;20479;-79
2021/09/02 02:08:45;;;;;;;1.65;1.02;;;16.80;83.20;;;;;;5135966;27;20027;-79
2021/09/02 02:11:10;;;;;;;0.70;0.70;;;16.80;83.10;;;;;;5135479;27;20023;-79
2021/09/02 02:13:36;;;;;;;1.00;0.88;;;16.90;83.10;;;;;;5135790;27;20151;-79
2021/09/02 02:16:01;;;;;;;0.60;0.60;;;16.90;83.10;;;;;;5135961;27;20038;-79
2021/09/02 02:18:27;;;;;;;1.30;1.00;;;16.90;83.10;;;;;;5135130;27;20376;-77
2021/09/02 02:20:52;;;;;;;1.67;1.10;;;16.90;83.10;;;;;;5135288;27;20501;-77
2021/09/02 02:23:18;;;;;;;1.35;0.98;;;16.90;83.10;;;;;;5135623;27;20031;-77
2021/09/02 02:25:44;;;;;;;1.38;1.15;;;16.90;83.20;;;;;;5135509;27;20035;-78
2021/09/02 02:28:09;;;;;;;1.20;1.08;;;16.80;83.20;;;;;;5135633;27;20532;-79
2021/09/02 02:30:35;;;;;;;1.50;1.17;;;16.80;83.20;;;;;;5135515;27;20039;-79
2021/09/02 02:33:00;;;;;;;0.57;0.57;;;16.80;83.30;;;;;;5135898;27;20050;-77
2021/09/02 02:35:26;;;;;;;1.85;1.02;;;16.80;83.40;;;;;;5117302;27;20019;-76
2021/09/02 02:37:51;;;;;;;0.85;0.80;;;16.70;83.50;;;;;;5135391;27;20434;-78
2021/09/02 02:40:17;;;;;;;1.35;1.00;;;16.60;83.50;;;;;;5116581;27;20061;-78
2021/09/02 02:42:44;;;;;;;0.82;0.80;;;16.60;83.60;;;;;;5135394;27;20055;-76
2021/09/02 02:45:10;;;;;;;1.98;0.85;;;16.70;83.70;;;;;;5135073;27;20472;-78
2021/09/02 02:47:36;;;;;;;0.85;0.80;;;16.70;83.60;;;;;;5135155;27;20019;-77
2021/09/02 02:50:03;;;;;;;1.27;0.90;;;16.60;83.60;;;;;;5135188;27;20029;-77
2021/09/02 02:52:29;;;;;;;1.23;0.95;;;16.60;83.60;;;;;;5134635;27;20087;-78
2021/09/02 02:54:54;;;;;;;1.25;1.00;;;16.70;83.70;;;;;;5116347;27;20560;-78
2021/09/02 02:57:20;;;;;;;1.40;1.17;;;16.70;83.70;;;;;;5135114;27;20019;-78
2021/09/02 02:59:45;;;;;;;0.65;0.63;;;16.70;83.50;;;;;;5134980;27;20471;-78
2021/09/02 03:02:11;;;;;;;1.02;0.90;;;16.70;83.50;;;;;;5134899;27;20031;-78
2021/09/02 03:04:36;;;;;;;0.75;0.70;;;16.70;83.40;;;;;;5134014;27;20019;-79
2021/09/02 03:07:02;;;;;;;1.20;0.80;;;16.70;83.40;;;;;;5134891;27;20074;-78
2021/09/02 03:09:28;;;;;;;1.00;0.70;;;16.80;83.50;;;;;;5134445;27;20034;-78
2021/09/02 03:11:53;;;;;;;0.98;0.90;;;16.80;83.40;;;;;;5134961;27;20027;-79
2021/09/02 03:14:19;;;;;;;0.82;0.70;;;16.80;83.40;;;;;;5134896;27;20364;-76
2021/09/02 03:16:44;;;;;;;1.20;1.05;;;16.80;83.30;;;;;;5134689;27;20029;-78
2021/09/02 03:19:10;;;;;;;1.50;1.10;;;16.80;83.30;;;;;;5134548;27;20051;-78
2021/09/02 03:21:35;;;;;;;1.35;1.15;;;16.80;83.30;;;;;;5134117;27;20475;-78
2021/09/02 03:24:01;;;;;;;0.68;0.68;;;16.80;83.40;;;;;;5134386;27;20408;-79
2021/09/02 03:26:26;;;;;;;1.60;0.98;;;16.80;83.30;;;;;;5134646;27;20424;-78
2021/09/02 03:28:52;;;;;;;1.20;0.77;;;16.80;83.50;;;;;;5134317;27;20015;-78
2021/09/02 03:31:17;;;;;;;1.75;1.00;;;16.80;83.50;;;;;;5134563;27;20051;-78
2021/09/02 03:33:43;;;;;;;1.70;1.15;;;16.80;83.50;;;;;;5133897;27;20022;-77
2021/09/02 03:36:09;;;;;;;1.13;0.88;;;16.80;83.50;;;;;;5134162;27;20027;-78
2021/09/02 03:38:34;;;;;;;0.68;0.60;;;16.80;83.50;;;;;;5133547;27;20035;-78
2021/09/02 03:41:00;;;;;;;0.80;0.80;;;16.80;83.50;;;;;;5134404;27;20028;-76
2021/09/02 03:43:25;;;;;;;1.95;1.05;;;16.90;83.50;;;;;;5134634;28;20019;-76
2021/09/02 03:45:51;;;;;;;0.73;0.70;;;16.90;83.50;;;;;;5134634;28;20023;-76
2021/09/02 03:48:16;;;;;;;1.00;0.88;;;16.90;83.50;;;;;;5134289;28;20019;-76
2021/09/02 03:50:42;;;;;;;1.23;1.13;;;16.80;83.50;;;;;;5115729;28;20019;-76
2021/09/02 03:53:07;;;;;;;1.05;0.93;;;16.80;83.60;;;;;;5115563;28;20216;-77
2021/09/02 03:55:33;;;;;;;1.08;0.90;;;16.80;83.70;;;;;;5115966;28;20024;-77
2021/09/02 03:57:58;;;;;;;1.15;0.93;;;16.80;83.70;;;;;;5134174;28;20073;-76
2021/09/02 04:00:24;;;;;;;1.17;0.80;;;16.80;83.70;;;;;;5134157;28;20031;-75
2021/09/02 04:02:49;;;;;;;1.52;0.98;;;16.80;83.70;;;;;;5134356;28;20476;-76
2021/09/02 04:05:15;;;;;;;1.17;1.08;;;16.80;83.60;;;;;;5134286;28;20024;-76
2021/09/02 04:07:40;;;;;;;1.05;0.95;;;16.80;83.70;;;;;;5133701;28;20023;-77
2021/09/02 04:10:06;;;;;;;0.82;0.80;;;16.80;83.80;;;;;;5133634;28;20019;-78
2021/09/02 04:12:32;;;;;;;2.00;1.00;;;16.70;83.80;;;;;;5133846;28;20027;-77
2021/09/02 04:14:58;;;;;;;1.42;1.13;;;16.80;83.90;;;;;;5134550;27;20116;-77
2021/09/02 04:17:23;;;;;;;2.08;0.90;;;16.70;83.70;;;;;;5138015;27;20107;-77
2021/09/02 04:19:49;;;;;;;1.30;0.90;;;16.80;83.80;;;;;;5138197;27;20495;-77
2021/09/02 04:22:14;;;;;;;0.85;0.80;;;16.80;83.90;;;;;;5137698;27;20035;-77
2021/09/02 04:24:40;;;;;;;2.20;1.50;;;16.80;83.90;;;;;;5138702;27;20506;-78
2021/09/02 04:27:06;;;;;;;1.33;0.80;;;16.70;83.80;;;;;;5137872;27;20027;-77
2021/09/02 04:29:31;;;;;;;1.25;0.98;;;16.70;83.90;;;;;;5137343;27;20015;-76
2021/09/02 04:31:57;;;;;;;1.42;1.13;;;16.70;83.90;;;;;;5137976;27;20352;-77
2021/09/02 04:34:22;;;;;;;1.48;1.10;;;16.70;83.90;;;;;;5137638;27;20522;-77
2021/09/02 04:36:48;;;;;;;1.00;0.90;;;16.70;83.90;;;;;;5138056;27;20030;-77
2021/09/02 04:39:14;;;;;;;2.28;1.48;;;16.70;83.90;;;;;;5137380;27;20091;-77
2021/09/02 04:41:39;;;;;;;1.00;0.90;;;16.70;83.90;;;;;;5119273;27;20035;-77
2021/09/02 04:44:05;;;;;;;0.95;0.70;;;16.70;83.90;;;;;;5137893;27;20066;-78
2021/09/02 04:46:30;;;;;;;1.00;0.80;;;16.70;83.80;;;;;;5137547;27;20035;-76
2021/09/02 04:48:56;;;;;;;2.53;1.65;;;16.70;83.80;;;;;;5137362;27;20097;-78
2021/09/02 04:51:21;;;;;;;1.00;0.90;;;16.70;83.80;;;;;;5137970;27;20023;-77
2021/09/02 04:53:47;;;;;;;2.53;1.00;;;16.70;83.80;;;;;;5137678;27;20090;-77
2021/09/02 04:56:12;;;;;;;1.42;0.95;;;16.70;83.80;;;;;;5137783;27;20433;-77
2021/09/02 04:58:38;;;;;;;0.90;0.80;;;16.70;83.80;;;;;;5137660;27;20057;-77
2021/09/02 05:01:06;;;;;;;0.77;0.77;;;16.70;83.80;;;;;;5137165;27;20031;-77
2021/09/02 05:03:32;;;;;;;1.02;0.90;;;16.70;83.80;;;;;;5118751;27;20026;-77
2021/09/02 05:05:57;;;;;;;0.93;0.70;;;16.70;83.80;;;;;;5137513;27;20023;-77
2021/09/02 05:08:23;;;;;;;1.02;1.00;;;16.70;83.80;;;;;;5137491;27;20023;-76
2021/09/02 05:10:50;;;;;;;1.33;1.00;;;16.70;83.80;;;;;;5137504;27;20378;-76
2021/09/02 05:13:16;;;;;;;1.10;1.00;;;16.70;83.80;;;;;;5119198;27;20474;-77
2021/09/02 05:15:41;;;;;;;1.55;0.77;;;16.70;83.90;;;;;;5137499;27;20026;-77
2021/09/02 05:18:07;;;;;;;0.75;0.70;;;16.70;83.90;;;;;;5136764;27;20465;-75
2021/09/02 05:20:33;;;;;;;1.20;0.80;;;16.70;83.90;;;;;;5114545;28;20039;-75
2021/09/02 05:22:58;;;;;;;1.45;1.25;;;16.70;83.90;;;;;;5116527;28;20023;-77
2021/09/02 05:25:24;;;;;;;1.52;1.02;;;16.70;83.80;;;;;;5116519;28;20526;-76
2021/09/02 05:27:49;;;;;;;1.63;1.00;;;16.70;83.90;;;;;;5115465;28;20047;-76
2021/09/02 05:30:16;;;;;;;1.00;0.90;;;16.70;83.90;;;;;;5116161;28;20032;-77
2021/09/02 05:32:42;;;;;;;2.75;0.80;;;16.70;83.90;;;;;;5115990;28;20027;-78
2021/09/02 05:35:08;;;;;;;1.42;1.00;;;16.70;83.90;;;;;;5116492;28;20016;-77
2021/09/02 05:37:34;;;;;;;1.80;0.90;;;16.70;83.90;;;;;;5116541;28;20051;-77
2021/09/02 05:40:00;;;;;;;3.60;0.80;;;16.70;83.80;;;;;;5116202;28;20074;-74
2021/09/02 05:42:25;;;;;;;0.60;0.60;;;16.80;83.80;;;;;;5114272;28;20036;-73
2021/09/02 05:44:53;;;;;;;1.85;1.65;;;16.80;83.80;;;;;;5115728;28;20020;-76
2021/09/02 05:47:19;;;;;;;1.33;0.80;;;16.80;83.70;;;;;;5115381;27;20023;-74
2021/09/02 05:49:44;;;;;;;1.20;0.70;;;16.80;83.70;;;;;;5115664;28;20031;-73
2021/09/02 05:52:10;;;;;;;0.70;0.70;;;16.80;83.70;;;;;;5115667;28;20523;-75
2021/09/02 05:54:35;;;;;;;0.60;0.60;;;16.80;83.70;;;;;;5115453;28;20103;-76
2021/09/02 05:57:01;;;;;;;1.17;0.75;;;16.90;83.70;;;;;;5115461;28;20039;-75
2021/09/02 05:59:26;;;;;;;0.70;0.63;;;16.90;83.70;;;;;;5115399;28;20020;-75
2021/09/02 06:01:52;;;;;;;1.10;0.82;;;16.90;83.70;;;;;;5114642;28;20035;-76
2021/09/02 06:04:17;;;;;;;1.10;0.80;;;16.90;83.60;;;;;;5115340;28;20027;-75
2021/09/02 06:06:43;;;;;;;0.60;0.60;;;17.00;83.60;;;;;;5115352;28;20148;-75
2021/09/02 06:09:08;;;;;;;1.02;0.68;;;17.00;83.70;;;;;;5115219;28;20024;-74
2021/09/02 06:11:35;;;;;;;0.57;0.52;;;17.00;83.60;;;;;;5115185;28;20095;-75
2021/09/02 06:14:01;;;;;;;0.47;0.47;;;17.10;83.50;;;;;;5115408;28;20460;-75
2021/09/02 06:16:26;;;;;;;0.40;0.40;;;17.00;83.50;;;;;;5114746;28;20031;-76
2021/09/02 06:18:52;;;;;;;0.50;0.50;;;17.00;83.50;;;;;;5108434;28;20036;-74
2021/09/02 06:21:17;;;;;;;1.52;0.88;;;17.00;83.50;;;;;;5093884;28;20131;-76
2021/09/02 06:23:43;;;;;;;0.85;0.70;;;17.00;83.50;;;;;;5094244;28;20020;-76
2021/09/02 06:26:09;;;;;;;0.60;0.60;;;17.00;83.60;;;;;;5094544;28;20050;-76
2021/09/02 06:28:34;;;;;;;0.65;0.40;;;17.00;83.60;;;;;;5094600;28;20379;-75
2021/09/02 06:31:00;;;;;;;0.55;0.55;;;17.10;83.60;;;;;;5094176;28;20024;-75
2021/09/02 06:33:25;;;;;;;0.60;0.60;;;17.10;83.40;;;;;;5094626;28;20024;-75
2021/09/02 06:35:51;;;;;;;0.75;0.50;;;17.10;83.40;;;;;;5094416;28;20020;-76
2021/09/02 06:38:16;;;;;;;0.80;0.75;;;17.20;83.40;;;;;;5094668;28;20366;-75
2021/09/02 06:40:42;;;;;;;0.50;0.45;;;17.20;83.40;;;;;;5094451;28;20041;-75
2021/09/02 06:43:08;;;;;;;0.90;0.50;;;17.20;83.30;;;;;;5092297;28;20429;-75
2021/09/02 06:45:33;;;;;;;0.40;0.40;;;17.20;83.30;;;;;;5093620;28;20460;-73
2021/09/02 06:47:59;;;;;;;0.40;0.40;;;17.20;83.20;;;;;;5092985;28;20023;-75
2021/09/02 06:50:24;;;;;;;1.15;0.70;;;17.30;83.20;;;;;;5092916;28;20024;-75
2021/09/02 06:52:50;;;;;;;0.57;0.43;;;17.30;83.10;;;;;;5093731;28;20061;-76
2021/09/02 06:55:16;;;;;;;0.68;0.60;;;17.30;83.10;;;;;;5094000;28;20472;-75
2021/09/02 06:57:41;;;;;;;0.35;0.28;;;17.30;83.20;;;;;;5094095;28;20016;-75
2021/09/02 07:00:08;;;;;;;0.30;0.30;;;17.30;83.20;;;;;;5093470;28;20020;-75
2021/09/02 07:02:34;;;;;;;0.32;0.28;;;17.30;83.20;;;;;;5093609;28;20062;-75
2021/09/02 07:05:01;;;;;;;1.25;0.98;;;17.30;83.80;;;;;;5094036;28;20020;-76
2021/09/02 07:07:26;;;;;;;0.40;0.40;;;17.30;83.10;;;;;;5093893;28;20372;-75
2021/09/02 07:09:52;;;;;;;0.68;0.50;;;17.30;83.20;;;;;;5092819;28;20031;-76
2021/09/02 07:12:17;;;;;;;0.82;0.70;;;17.30;83.30;;;;;;5093758;28;20103;-75
2021/09/02 07:14:43;;;;;;;0.60;0.50;;;17.30;83.20;;;;;;5093447;28;20024;-76
2021/09/02 07:17:08;;;;;;;0.40;0.32;;;17.30;83.30;;;;;;5093811;28;20022;-76
2021/09/02 07:19:34;;;;;;;0.60;0.60;;;17.20;83.20;;;;;;5091953;28;20044;-76
2021/09/02 07:21:59;;;;;;;0.70;0.50;;;17.20;83.30;;;;;;5093730;28;20032;-76
2021/09/02 07:24:25;;;;;;;0.30;0.30;;;17.20;83.20;;;;;;5093517;28;20093;-76
2021/09/02 07:26:51;;;;;;;0.90;0.47;;;17.20;83.30;;;;;;5093663;28;20377;-75
2021/09/02 07:29:17;;;;;;;1.60;0.40;;;17.20;83.10;;;;;;5092151;28;20383;-73
2021/09/02 07:31:43;;;;;;;0.73;0.57;;;17.20;83.10;;;;;;5093684;28;20097;-74
2021/09/02 07:34:09;;;;;;;0.70;0.57;;;17.30;83.10;;;;;;5093639;28;20461;-74
2021/09/02 07:36:35;;;;;;;0.95;0.68;;;17.30;83.10;;;;;;5093754;28;20023;-76
2021/09/02 07:39:01;;;;;;;0.63;0.63;;;17.30;83.10;;;;;;5091939;28;20012;-74
2021/09/02 07:41:27;;;;;;;0.52;0.47;;;17.30;83.00;;;;;;5093383;28;20044;-75
2021/09/02 07:43:52;;;;;;;0.60;0.60;;;17.40;82.90;;;;;;5092980;28;20334;-74
2021/09/02 07:46:18;;;;;;;0.85;0.75;;;17.40;82.90;;;;;;5092977;28;20103;-75
2021/09/02 07:48:46;;;;;;;0.43;0.40;;;17.40;82.90;;;;;;5093332;28;20435;-75
2021/09/02 07:51:13;;;;;;;0.40;0.40;;;17.40;82.80;;;;;;5096100;28;20074;-75
2021/09/02 07:53:39;;;;;;;0.30;0.30;;;17.50;82.70;;;;;;5096880;28;20373;-76
2021/09/02 07:56:05;;;;;;;0.40;0.40;;;17.50;82.50;;;;;;5097317;28;20460;-75
2021/09/02 07:58:30;;;;;;;0.68;0.47;;;17.50;82.40;;;;;;5096973;28;20020;-74
2021/09/02 08:00:56;;;;;;;0.70;0.55;;;17.60;82.30;;;;;;5095568;28;20408;-75
2021/09/02 08:03:22;;;;;;;0.50;0.50;;;17.60;82.30;;;;;;5096888;28;20028;-75
2021/09/02 08:05:47;;;;;;;0.30;0.30;;;17.70;82.20;;;;;;5096744;28;20105;-75
2021/09/02 08:08:16;;;;;;;1.20;0.70;;;17.80;82.10;;;;;;5097272;28;20477;-75
2021/09/02 08:10:43;;;;;;;0.60;0.60;;;17.80;81.90;;;;;;5097093;28;20097;-75
2021/09/02 08:13:08;;;;;;;1.42;0.98;;;17.90;81.90;;;;;;5095070;28;20481;-75
2021/09/02 08:15:35;;;;;;;0.60;0.60;;;18.00;81.80;;;;;;5097211;28;20108;-76
2021/09/02 08:18:01;;;;;;;2.03;1.10;;;18.10;81.70;;;;;;5096954;28;20102;-76
2021/09/02 08:20:27;;;;;;;0.73;0.47;;;18.20;81.70;;;;;;5134079;27;20464;-75
2021/09/02 08:22:52;;;;;;;1.67;0.70;;;18.30;81.50;;;;;;5118368;27;20020;-76
2021/09/02 08:25:18;;;;;;;0.52;0.47;;;18.30;81.40;;;;;;5137887;27;20433;-76
2021/09/02 08:27:45;;;;;;;0.63;0.60;;;18.40;81.30;;;;;;5118991;27;20053;-75
2021/09/02 08:30:12;;;;;;;1.00;0.70;;;18.50;81.30;;;;;;5137790;27;20019;-75
2021/09/02 08:32:37;;;;;;;0.98;0.68;;;18.60;81.10;;;;;;5137367;27;20027;-76
2021/09/02 08:35:04;;;;;;;0.70;0.70;;;18.80;80.90;;;;;;5137684;27;20370;-76
2021/09/02 08:37:29;;;;;;;1.05;0.60;;;18.80;80.80;;;;;;5137656;27;20036;-74
2021/09/02 08:39:55;;;;;;;0.60;0.57;;;18.90;80.90;;;;;;5137183;27;20023;-75
2021/09/02 08:42:21;;;;;;;0.40;0.40;;;18.90;80.90;;;;;;5137453;27;20080;-75
2021/09/02 08:44:46;;;;;;;1.00;0.90;;;18.90;80.80;;;;;;5137611;27;20380;-74
2021/09/02 08:47:12;;;;;;;0.77;0.63;;;18.90;80.90;;;;;;5137656;27;20096;-75
2021/09/02 08:49:38;;;;;;;0.77;0.75;;;18.80;80.90;;;;;;5137511;27;20456;-75
2021/09/02 08:52:05;;;;;;;0.75;0.75;;;18.80;81.10;;;;;;5137700;27;20034;-75
2021/09/02 08:54:36;;;;;;;1.17;1.00;;;18.80;81.20;;;;;;5119325;27;20011;-75
2021/09/02 08:57:02;;;;;;;1.27;0.80;;;18.80;81.10;;;;;;5136805;27;20068;-74
2021/09/02 08:59:27;;;;;;;1.17;1.02;;;18.90;81.00;;;;;;5137037;27;20413;-74
2021/09/02 09:01:53;;;;;;;1.30;1.10;;;19.10;80.70;;;;;;5136951;27;20031;-76
2021/09/02 09:04:18;;;;;;;0.82;0.70;;;19.20;80.30;;;;;;5137007;27;20064;-75
2021/09/02 09:06:45;;;;;;;0.95;0.80;;;19.30;80.20;;;;;;5136986;27;20031;-77
2021/09/02 09:09:11;;;;;;;1.20;0.90;;;19.30;80.20;;;;;;5118697;27;20052;-74
2021/09/02 09:11:51;;;;;;;0.88;0.73;;;19.40;80.20;;;;;;5136461;27;20106;-75
2021/09/02 09:14:26;;;;;;;0.75;0.55;;;19.40;80.00;;;;;;5118545;27;20073;-76
2021/09/02 09:16:59;;;;;;;1.48;0.90;;;19.50;79.90;;;;;;5117968;27;20053;-76
2021/09/02 09:19:52;;;;;;;0.70;0.70;;;19.50;79.70;;;;;;5136623;27;20538;-77
2021/09/02 09:22:19;;;;;;;0.85;0.85;;;19.50;79.80;;;;;;5136820;27;20038;-76
2021/09/02 09:24:47;;;;;;;1.27;0.95;;;19.50;80.00;;;;;;5136296;27;20023;-75
2021/09/02 09:27:14;;;;;;;0.60;0.60;;;19.50;79.90;;;;;;5136579;27;20024;-76
2021/09/02 09:29:40;;;;;;;0.68;0.68;;;19.50;79.90;;;;;;5136628;27;20471;-75
2021/09/02 09:32:17;;;;;;;1.25;1.08;;;19.60;79.70;;;;;;5136289;27;20062;-75
2021/09/02 09:34:51;;;;;;;0.93;0.88;;;19.80;79.60;;;;;;5117381;27;20018;-75
2021/09/02 09:37:17;;;;;;;1.05;0.95;;;20.00;79.20;;;;;;5136414;27;20031;-76
2021/09/02 09:39:44;;;;;;;0.75;0.75;;;20.20;78.90;;;;;;5135932;27;20051;-76
2021/09/02 09:42:09;;;;;;;1.10;1.00;;;20.40;78.80;;;;;;5136095;27;20043;-76
2021/09/02 09:44:35;;;;;;;1.45;1.20;;;20.50;78.70;;;;;;5136242;27;20120;-74
2021/09/02 09:47:20;;;;;;;2.03;1.33;;;20.60;78.60;;;;;;5136117;27;20508;-74
2021/09/02 09:49:57;;;;;;;0.88;0.88;;;20.70;78.50;;;;;;5135824;27;20057;-74
2021/09/02 09:52:30;;;;;;;1.55;1.02;;;20.70;78.50;;;;;;5117191;27;20031;-75
2021/09/02 09:55:04;;;;;;;1.48;0.95;;;20.80;78.40;;;;;;5135628;27;20063;-74
2021/09/02 09:57:31;;;;;;;0.98;0.70;;;20.90;78.30;;;;;;5135896;27;20054;-75
2021/09/02 10:00:09;;;;;;;1.73;1.10;;;21.00;78.30;;;;;;5135637;27;20042;-73
2021/09/02 10:02:39;;;;;;;1.00;0.73;;;21.00;78.10;;;;;;5127083;27;20039;-76
2021/09/02 10:05:07;;;;;;;1.17;0.95;;;21.10;78.30;;;;;;5135839;27;20106;-73
2021/09/02 10:07:35;;;;;;;0.93;0.93;;;21.20;78.10;;;;;;5117398;27;20433;-75
2021/09/02 10:10:02;;;;;;;1.05;0.90;;;21.30;77.90;;;;;;5135423;27;20352;-76
2021/09/02 10:12:34;;;;;;;0.95;0.95;;;21.30;77.90;;;;;;5135597;27;20031;-76
2021/09/02 10:15:07;;;;;;;0.90;0.82;;;21.40;77.90;;;;;;5135724;27;20167;-76
2021/09/02 10:17:36;;;;;;;1.80;1.00;;;21.50;77.60;;;;;;5135560;27;20031;-74
2021/09/02 10:20:04;;;;;;;0.82;0.73;;;21.50;77.50;;;;;;5135451;27;20039;-75
2021/09/02 10:22:33;;;;;;;0.55;0.55;;;21.40;77.90;;;;;;5135232;27;20027;-76
2021/09/02 10:24:58;;;;;;;1.23;0.87;;;21.40;77.90;;;;;;5117348;27;20026;-76
2021/09/02 10:27:23;;;;;;;1.13;1.02;;;21.40;77.80;;;;;;5135582;27;20027;-76
2021/09/02 10:29:51;;;;;;;0.70;0.70;;;21.40;77.90;;;;;;5117147;27;20019;-77
2021/09/02 10:32:26;;;;;;;1.00;0.95;;;21.50;77.90;;;;;;5134795;27;20068;-76
2021/09/02 10:34:55;;;;;;;1.80;1.08;;;21.70;77.50;;;;;;5117090;27;20430;-75
2021/09/02 10:37:36;;;;;;;0.73;0.73;;;21.80;77.10;;;;;;5135004;27;20086;-75
2021/09/02 10:40:23;;;;;;;1.15;1.00;;;21.90;77.10;;;;;;5135254;27;20440;-75
2021/09/02 10:42:49;;;;;;;1.55;1.08;;;22.10;77.10;;;;;;5135285;27;20050;-75
2021/09/02 10:45:27;;;;;;;1.17;0.98;;;22.20;76.80;;;;;;5135151;27;20110;-75
2021/09/02 10:48:02;;;;;;;0.95;0.85;;;22.20;76.80;;;;;;5134377;27;20023;-74
2021/09/02 10:50:34;;;;;;;2.13;1.02;;;22.20;76.80;;;;;;5114533;28;20031;-75
2021/09/02 10:53:13;;;;;;;1.20;1.10;;;22.30;76.80;;;;;;5129299;27;20436;-75
2021/09/02 10:55:53;;;;;;;1.38;1.00;;;22.30;76.70;;;;;;5116830;27;20493;-75
2021/09/02 10:58:47;;;;;;;0.77;0.77;;;22.20;76.70;;;;;;5135133;27;20015;-75
2021/09/02 11:01:29;;;;;;;1.23;1.10;;;22.20;76.90;;;;;;5134741;27;20039;-74
2021/09/02 11:04:03;;;;;;;0.60;0.60;;;22.20;76.80;;;;;;5134890;27;20499;-74
2021/09/02 11:06:28;;;;;;;1.17;0.95;;;22.20;76.70;;;;;;5133668;27;20022;-75
2021/09/02 11:08:54;;;;;;;1.70;0.95;;;22.30;76.50;;;;;;5134932;27;20038;-74
2021/09/02 11:11:22;;;;;;;0.98;0.98;;;22.40;76.40;;;;;;5134853;27;20021;-75
2021/09/02 11:13:50;;;;;;;0.77;0.73;;;22.50;76.30;;;;;;5134438;27;20425;-76
2021/09/02 11:16:17;;;;;;;0.73;0.73;;;22.50;76.30;;;;;;5134978;27;20072;-75
2021/09/02 11:19:03;;;;;;;0.73;0.65;;;22.50;76.20;;;;;;5134776;27;20051;-75
2021/09/02 11:21:29;;;;;;;1.02;0.98;;;22.70;76.10;;;;;;5115065;28;20078;-75
2021/09/02 11:23:56;;;;;;;1.23;0.98;;;22.70;76.10;;;;;;5134879;27;20081;-75
2021/09/02 11:26:43;;;;;;;1.15;1.05;;;22.70;76.10;;;;;;5115309;27;20076;-75
2021/09/02 11:29:20;;;;;;;1.00;0.90;;;22.70;75.90;;;;;;5134243;27;20084;-76
2021/09/02 11:32:07;;;;;;;0.80;0.80;;;22.60;76.10;;;;;;5134584;27;20057;-76
2021/09/02 11:34:34;;;;;;;0.90;0.90;;;22.60;76.20;;;;;;5116039;27;20546;-75
2021/09/02 11:37:00;;;;;;;0.85;0.80;;;22.50;76.90;;;;;;5115538;27;20027;-73
2021/09/02 11:39:31;;;;;;;1.30;1.20;;;22.50;76.10;;;;;;5134492;27;20047;-73
2021/09/02 11:42:14;;;;;;;0.93;0.90;;;22.40;76.30;;;;;;5115980;27;20080;-75
2021/09/02 11:44:40;;;;;;;1.30;1.13;;;22.50;76.20;;;;;;5134300;28;20019;-75
2021/09/02 11:47:08;;;;;;;0.93;0.82;;;22.50;76.00;;;;;;5134472;28;20046;-75
2021/09/02 11:49:35;;;;;;;1.63;0.85;;;22.60;75.80;;;;;;5133554;28;20016;-75
2021/09/02 11:52:01;;;;;;;0.80;0.80;;;22.60;75.80;;;;;;5134405;28;20031;-75
2021/09/02 11:54:27;;;;;;;1.20;1.08;;;22.70;75.60;;;;;;5134530;28;20020;-75
2021/09/02 11:56:53;;;;;;;0.88;0.82;;;22.80;75.40;;;;;;5116216;28;20034;-75
2021/09/02 11:59:20;;;;;;;0.88;0.80;;;22.80;75.30;;;;;;5134532;28;20348;-75
2021/09/02 12:01:50;;;;;;;1.08;0.98;;;23.00;75.30;;;;;;5133932;28;20064;-75
2021/09/02 12:04:23;;;;;;;1.27;0.90;;;23.10;75.10;;;;;;5133859;28;20024;-75
2021/09/02 12:06:52;;;;;;;1.23;0.80;;;23.10;75.00;;;;;;5134117;28;20015;-74
2021/09/02 12:09:19;;;;;;;1.10;1.00;;;23.20;75.00;;;;;;5115706;28;20031;-74
2021/09/02 12:11:45;;;;;;;1.02;0.80;;;23.20;74.80;;;;;;5133775;28;20118;-74
2021/09/02 12:14:18;;;;;;;0.82;0.82;;;23.40;74.70;;;;;;5133932;28;20055;-74
2021/09/02 12:16:43;;;;;;;1.13;1.02;;;23.50;74.30;;;;;;5133695;28;20027;-75
2021/09/02 12:19:09;;;;;;;1.08;0.95;;;23.50;74.30;;;;;;5115062;28;20373;-76
2021/09/02 12:21:34;;;;;;;1.23;1.08;;;23.60;74.40;;;;;;5134060;28;20092;-74
2021/09/02 12:24:09;;;;;;;0.70;0.70;;;23.70;74.30;;;;;;5133901;28;20382;-76
2021/09/02 12:26:54;;;;;;;0.80;0.80;;;23.90;74.20;;;;;;5133753;28;20471;-75
2021/09/02 12:29:23;;;;;;;0.73;0.73;;;24.00;74.10;;;;;;5134030;28;20024;-76
2021/09/02 12:31:51;;;;;;;0.98;0.90;;;24.10;73.80;;;;;;5133704;28;20107;-75
2021/09/02 12:34:22;;;;;;;0.82;0.82;;;24.30;73.50;;;;;;5126110;28;20109;-75
2021/09/02 12:37:04;;;;;;;1.08;0.98;;;24.50;73.20;;;;;;5135744;27;20023;-75
2021/09/02 12:39:32;;;;;;;1.75;1.20;;;24.60;73.10;;;;;;5137912;27;20060;-75
2021/09/02 12:42:04;;;;;;;0.98;0.90;;;24.50;73.20;;;;;;5137606;27;20034;-74
2021/09/02 12:44:32;;;;;;;1.00;1.00;;;24.40;73.40;;;;;;5137559;27;20023;-74
2021/09/02 12:47:19;;;;;;;0.80;0.80;;;24.50;73.30;;;;;;5137716;27;20031;-75
2021/09/02 12:49:50;;;;;;;0.75;0.75;;;24.60;73.20;;;;;;5136336;27;20098;-75